createdAt,value
2024-04-22T00:04:16.768Z,101042.94
2024-04-22T00:09:24.144Z,101041.31
2024-04-22T00:14:28.857Z,101029.06
2024-04-22T00:19:33.665Z,101033.75
2024-04-22T00:24:41.033Z,101029.25
2024-04-22T00:29:45.760Z,101018.91
2024-04-22T00:34:50.483Z,101019.34
2024-04-22T00:39:57.851Z,101021.31
2024-04-22T00:45:02.539Z,101026.88
2024-04-22T00:50:07.654Z,101024.41
2024-04-22T00:55:15.278Z,101026.13
2024-04-22T01:00:20.066Z,101021.06
2024-04-22T01:05:24.741Z,101018.56
2024-04-22T01:10:32.164Z,101024.91
2024-04-22T01:15:36.970Z,101024.03
2024-04-22T01:20:41.761Z,101030.44
2024-04-22T01:25:53.121Z,101021.72
2024-04-22T01:30:57.838Z,101021.72
2024-04-22T01:36:02.528Z,101012.94
2024-04-22T01:41:09.970Z,101029.00
2024-04-22T01:46:14.741Z,101028.16
2024-04-22T01:51:19.543Z,101023.84
2024-04-22T01:56:27.081Z,101027.47
2024-04-22T02:01:31.837Z,101021.34
2024-04-22T02:06:36.487Z,101023.16
2024-04-22T02:11:43.843Z,101038.38
2024-04-22T02:16:49.962Z,101038.53
2024-04-22T02:21:55.078Z,101036.91
2024-04-22T02:27:02.386Z,101038.72
2024-04-22T02:32:07.732Z,101037.84
2024-04-22T02:37:12.425Z,101044.28
2024-04-22T02:42:19.739Z,101045.22
2024-04-22T02:47:24.539Z,101047.91
2024-04-22T02:52:29.405Z,101042.84
2024-04-22T02:57:37.050Z,101051.81
2024-04-22T03:02:41.785Z,101044.72
2024-04-22T03:07:46.584Z,101037.75
2024-04-22T03:12:53.946Z,101042.34
2024-04-22T03:17:58.531Z,101042.34
2024-04-22T03:23:03.175Z,101042.44
2024-04-22T03:28:10.594Z,101042.63
2024-04-22T03:33:15.223Z,101045.19
2024-04-22T03:38:19.817Z,101047.88
2024-04-22T03:43:27.144Z,101054.97
2024-04-22T03:48:47.717Z,101055.16
2024-04-22T03:53:52.310Z,101053.44
2024-04-22T03:58:59.484Z,101053.53
2024-04-22T04:04:04.143Z,101064.34
2024-04-22T04:09:08.879Z,101065.38
2024-04-22T04:14:16.071Z,101062.78
2024-04-22T04:19:20.689Z,101072.72
2024-04-22T04:24:25.258Z,101071.09
2024-04-22T04:29:32.358Z,101071.19
2024-04-22T04:34:37.040Z,101068.53
2024-04-22T04:39:41.766Z,101075.00
2024-04-22T04:44:50.042Z,101077.78
2024-04-22T04:49:54.663Z,101081.31
2024-04-22T04:54:59.386Z,101079.69
2024-04-22T05:00:07.488Z,101086.75
2024-04-22T05:05:12.104Z,101091.25
2024-04-22T05:10:16.731Z,101086.75
2024-04-22T05:15:23.899Z,101091.25
2024-04-22T05:20:31.263Z,101087.63
2024-04-22T05:25:36.050Z,101086.66
2024-04-22T05:30:43.362Z,101090.09
2024-04-22T05:36:00.196Z,101083.88
2024-04-22T05:41:04.765Z,101082.06
2024-04-22T05:46:12.501Z,101079.41
2024-04-22T05:51:17.098Z,101080.19
2024-04-22T05:56:21.672Z,101089.75
2024-04-22T06:01:29.142Z,101088.44
2024-04-22T06:06:37.958Z,101085.72
2024-04-22T06:11:52.452Z,101093.94
2024-04-22T06:17:05.009Z,101095.47
2024-04-22T06:22:09.711Z,101092.31
2024-04-22T06:27:14.656Z,101085.56
2024-04-22T06:32:22.069Z,101087.69
2024-04-22T06:37:26.899Z,101088.47
2024-04-22T06:42:31.726Z,101075.59
2024-04-22T06:47:39.060Z,101075.19
2024-04-22T06:52:43.943Z,101084.81
2024-04-22T06:57:48.654Z,101083.28
2024-04-22T07:02:56.700Z,101078.53
2024-04-22T07:08:01.330Z,101083.34
2024-04-22T07:13:06.043Z,101080.06
2024-04-22T07:18:13.306Z,101080.66
2024-04-22T07:23:17.951Z,101090.41
2024-04-22T07:28:23.062Z,101076.41
2024-04-22T07:33:31.980Z,101086.19
2024-04-22T07:38:36.827Z,101089.81
2024-04-22T07:43:41.453Z,101084.56
2024-04-22T07:48:48.848Z,101077.28
2024-04-22T07:53:54.490Z,101088.09
2024-04-22T07:58:59.648Z,101076.50
2024-04-22T08:04:07.576Z,101072.97
2024-04-22T08:09:12.235Z,101087.22
2024-04-22T08:14:16.819Z,101077.47
2024-04-22T08:19:24.279Z,101071.91
2024-04-22T08:24:28.957Z,101078.13
2024-04-22T08:29:33.659Z,101073.31
2024-04-22T08:34:40.885Z,101074.16
2024-04-22T08:39:46.094Z,101064.31
2024-04-22T08:44:50.700Z,101075.78
2024-04-22T08:49:57.869Z,101066.03
2024-04-22T08:55:02.478Z,101057.91
2024-04-22T09:00:07.782Z,101060.56
2024-04-22T09:05:15.152Z,101075.78
2024-04-22T09:10:49.480Z,101072.41
2024-04-22T09:15:45.044Z,101076.16
2024-04-22T09:20:52.388Z,101075.88
2024-04-22T09:25:57.004Z,101070.44
2024-04-22T09:31:02.884Z,101067.47
2024-04-22T09:36:10.915Z,101072.44
2024-04-22T09:41:15.996Z,101063.38
2024-04-22T09:46:21.376Z,101066.63
2024-04-22T09:51:28.685Z,101068.16
2024-04-22T09:56:35.695Z,101065.47
2024-04-22T10:01:40.516Z,101069.97
2024-04-22T10:06:48.508Z,101079.06
2024-04-22T10:11:53.655Z,101075.34
2024-04-22T10:16:59.532Z,101072.66
2024-04-22T10:22:07.951Z,101073.59
2024-04-22T10:27:15.159Z,101069.03
2024-04-22T10:32:19.792Z,101060.03
2024-04-22T10:37:27.188Z,101056.00
2024-04-22T10:42:31.715Z,101069.41
2024-04-22T10:47:36.892Z,101064.63
2024-04-22T10:52:44.312Z,101069.41
2024-04-22T10:57:49.093Z,101072.06
2024-04-22T11:02:54.065Z,101065.94
2024-04-22T11:08:01.783Z,101057.91
2024-04-22T11:13:06.456Z,101062.00
2024-04-22T11:18:11.491Z,101056.75
2024-04-22T11:23:19.175Z,101059.72
2024-04-22T11:28:23.981Z,101063.44
2024-04-22T11:33:31.479Z,101065.47
2024-04-22T11:38:38.835Z,101061.72
2024-04-22T11:43:43.579Z,101056.94
2024-04-22T11:48:50.648Z,101050.16
2024-04-22T11:53:57.912Z,101049.84
2024-04-22T11:59:02.523Z,101037.16
2024-04-22T12:04:07.428Z,101039.06
2024-04-22T12:09:14.761Z,101035.38
2024-04-22T12:14:19.562Z,101030.13
2024-04-22T12:19:24.139Z,101036.94
2024-04-22T12:24:31.444Z,101026.50
2024-04-22T12:29:36.179Z,101027.28
2024-04-22T12:34:40.825Z,101027.06
2024-04-22T12:39:48.038Z,101010.13
2024-04-22T12:44:52.717Z,101020.63
2024-04-22T12:50:13.042Z,101008.78
2024-04-22T12:55:21.477Z,101004.03
2024-04-22T13:00:26.990Z,101005.94
2024-04-22T13:05:31.778Z,100991.75
2024-04-22T13:10:39.139Z,100981.88
2024-04-22T13:15:43.766Z,100979.03
2024-04-22T13:20:48.394Z,100973.75
2024-04-22T13:25:56.363Z,100968.88
2024-04-22T13:31:01.228Z,100967.19
2024-04-22T13:36:06.357Z,100971.00
2024-04-22T13:41:13.545Z,100969.78
2024-04-22T13:46:18.114Z,100955.38
2024-04-22T13:51:22.679Z,100961.13
2024-04-22T13:56:30.233Z,100955.78
2024-04-22T14:01:34.897Z,100958.41
2024-04-22T14:06:39.451Z,100954.81
2024-04-22T14:11:46.687Z,100950.81
2024-04-22T14:16:51.324Z,100943.34
2024-04-22T14:21:56.011Z,100938.84
2024-04-22T14:27:03.319Z,100934.50
2024-04-22T14:32:08.595Z,100945.28
2024-04-22T14:37:13.318Z,100953.78
2024-04-22T14:42:20.631Z,100954.38
2024-04-22T14:47:26.024Z,100950.75
2024-04-22T14:52:30.825Z,100956.44
2024-04-22T14:57:38.150Z,100950.22
2024-04-22T15:02:42.761Z,100949.53
2024-04-22T15:07:47.561Z,100946.53
2024-04-22T15:12:54.877Z,100943.34
2024-04-22T15:17:59.526Z,100942.91
2024-04-22T15:23:04.164Z,100936.38
2024-04-22T15:28:13.731Z,100936.00
2024-04-22T15:33:19.776Z,100919.91
2024-04-22T15:38:24.408Z,100917.88
2024-04-22T15:43:31.717Z,100908.13
2024-04-22T15:48:36.522Z,100910.78
2024-04-22T15:53:41.185Z,100912.59
2024-04-22T15:58:48.557Z,100908.03
2024-04-22T16:03:53.359Z,100902.94
2024-04-22T16:09:03.006Z,100906.66
2024-04-22T16:14:10.418Z,100909.88
2024-04-22T16:19:14.991Z,100918.59
2024-04-22T16:24:19.635Z,100913.25
2024-04-22T16:29:26.981Z,100932.41
2024-04-22T16:34:31.794Z,100944.78
2024-04-22T16:39:39.788Z,100930.63
2024-04-22T16:44:47.055Z,100929.63
2024-04-22T16:49:51.910Z,100923.22
2024-04-22T16:54:56.683Z,100924.84
2024-04-22T17:00:05.107Z,100922.38
2024-04-22T17:05:10.080Z,100929.97
2024-04-22T17:10:16.643Z,100924.78
2024-04-22T17:15:23.989Z,100925.13
2024-04-22T17:20:28.626Z,100917.38
2024-04-22T17:25:33.305Z,100930.25
2024-04-22T17:30:41.977Z,100933.41
2024-04-22T17:35:48.680Z,100931.50
2024-04-22T17:40:56.685Z,100932.16
2024-04-22T17:46:05.303Z,100936.22
2024-04-22T17:51:09.880Z,100945.47
2024-04-22T17:56:16.661Z,100945.41
2024-04-22T18:01:23.904Z,100941.69
2024-04-22T18:06:28.485Z,100941.59
2024-04-22T18:11:33.881Z,100947.81
2024-04-22T18:16:42.327Z,100958.00
2024-04-22T18:21:47.428Z,100963.38
2024-04-22T18:26:52.123Z,100962.63
2024-04-22T18:31:59.412Z,100965.72
2024-04-22T18:37:04.068Z,100967.56
2024-04-22T18:42:08.895Z,100960.69
2024-04-22T18:47:41.135Z,100966.16
2024-04-22T18:58:43.839Z,100977.88
2024-04-22T19:04:13.542Z,100973.38
2024-04-22T19:21:54.705Z,100960.91
2024-04-22T19:26:59.367Z,100961.78
2024-04-22T19:32:04.230Z,100964.44
2024-04-22T19:37:11.588Z,100959.19
2024-04-22T19:42:16.273Z,100967.13
2024-04-22T19:47:21.074Z,100956.41
2024-04-22T19:52:28.335Z,100961.00
2024-04-22T19:57:33.175Z,100966.06
2024-04-22T20:02:39.575Z,100958.13
2024-04-22T20:07:46.814Z,100967.31
2024-04-22T20:12:51.506Z,100960.34
2024-04-22T20:18:16.178Z,100966.28
2024-04-22T20:23:23.575Z,100960.91
2024-04-22T20:28:28.257Z,100974.84
2024-04-22T20:33:33.029Z,100965.31
2024-04-22T20:38:40.355Z,100966.41
2024-04-22T20:43:46.172Z,100967.16
2024-04-22T20:48:50.826Z,100966.72
2024-04-22T20:54:23.853Z,100973.81
2024-04-22T20:59:28.438Z,100971.88
2024-04-22T21:04:33.106Z,100980.78
2024-04-22T21:09:40.413Z,100970.16
2024-04-22T21:14:45.032Z,100980.78
2024-04-22T21:19:49.709Z,100982.50
2024-04-22T21:24:57.148Z,100985.31
2024-04-22T21:30:01.892Z,100980.50
2024-04-22T21:35:06.936Z,100980.69
2024-04-22T21:40:14.476Z,100979.81
2024-04-22T21:45:19.178Z,100978.75
2024-04-22T21:50:23.817Z,100971.56
2024-04-22T21:56:01.455Z,100977.88
2024-04-22T22:01:43.585Z,100982.50
2024-04-22T22:07:19.969Z,100971.03
2024-04-22T22:12:27.192Z,100966.16
2024-04-22T22:17:34.114Z,100974.63
2024-04-22T22:22:41.541Z,100973.53
2024-04-22T22:27:51.844Z,100968.56
2024-04-22T22:32:56.923Z,100966.78
2024-04-22T22:38:03.500Z,100969.97
2024-04-22T22:43:11.026Z,100965.69
2024-04-22T22:48:15.854Z,100964.34
2024-04-22T22:53:22.144Z,100964.47
2024-04-22T22:58:32.034Z,100961.31
2024-04-22T23:03:36.853Z,100955.19
2024-04-22T23:08:41.462Z,100955.59
2024-04-22T23:13:48.779Z,100949.69
2024-04-22T23:18:53.545Z,100949.09
2024-04-22T23:23:59.006Z,100948.34
2024-04-22T23:29:07.060Z,100946.75
2024-04-22T23:34:11.711Z,100948.66
2024-04-22T23:39:16.382Z,100947.22
2024-04-22T23:44:23.711Z,100948.41
2024-04-22T23:49:30.766Z,100947.81
2024-04-22T23:54:36.481Z,100947.34
2024-04-22T23:59:43.700Z,100938.75
